createdAt,value
2017-11-06T00:01:51.091Z,2.20
2017-11-06T00:04:19.427Z,1.90
2017-11-06T00:06:47.067Z,1.90
2017-11-06T00:09:14.643Z,2.00
2017-11-06T00:11:42.250Z,1.90
2017-11-06T00:14:09.830Z,1.90
2017-11-06T00:16:37.452Z,1.80
2017-11-06T00:19:05.827Z,1.70
2017-11-06T00:21:34.179Z,1.70
2017-11-06T00:24:01.795Z,1.60
2017-11-06T00:26:29.367Z,1.70
2017-11-06T00:28:57.052Z,1.60
2017-11-06T00:31:24.725Z,1.60
2017-11-06T00:33:52.307Z,1.60
2017-11-06T00:36:19.909Z,1.70
2017-11-06T00:38:47.669Z,1.90
2017-11-06T00:41:15.243Z,1.90
2017-11-06T00:43:42.846Z,1.80
2017-11-06T00:46:10.419Z,1.80
2017-11-06T00:48:37.972Z,1.80
2017-11-06T00:51:05.556Z,1.70
2017-11-06T00:53:33.893Z,1.80
2017-11-06T00:56:01.464Z,1.80
2017-11-06T00:58:29.018Z,1.80
2017-11-06T01:00:56.651Z,1.70
2017-11-06T01:03:24.206Z,1.70
2017-11-06T01:05:51.784Z,1.60
2017-11-06T01:08:19.357Z,1.60
2017-11-06T01:10:46.931Z,1.60
2017-11-06T01:13:14.506Z,1.60
2017-11-06T01:27:58.634Z,2.00
2017-11-06T01:30:26.275Z,1.90
2017-11-06T01:35:45.746Z,1.80
2017-11-06T01:38:13.398Z,1.90
2017-11-06T01:40:40.975Z,2.00
2017-11-06T01:43:08.583Z,2.20
2017-11-06T01:45:36.161Z,2.30
2017-11-06T01:48:03.753Z,2.40
2017-11-06T01:50:32.095Z,2.40
2017-11-06T01:52:59.676Z,2.40
2017-11-06T01:55:28.059Z,2.30
2017-11-06T01:57:56.431Z,2.40
2017-11-06T02:00:24.078Z,2.40
2017-11-06T02:02:51.796Z,2.30
2017-11-06T02:05:19.383Z,2.10
2017-11-06T02:07:46.951Z,2.00
2017-11-06T02:10:14.540Z,1.90
2017-11-06T02:12:42.100Z,1.90
2017-11-06T02:15:09.669Z,1.90
2017-11-06T02:17:37.236Z,1.90
2017-11-06T02:20:05.787Z,1.80
2017-11-06T02:22:33.512Z,1.80
2017-11-06T02:25:01.189Z,1.90
2017-11-06T02:27:28.747Z,1.90
2017-11-06T02:29:56.329Z,2.00
2017-11-06T02:32:23.899Z,1.90
2017-11-06T02:34:51.461Z,1.90
2017-11-06T02:37:19.015Z,1.70
2017-11-06T02:39:46.602Z,1.60
2017-11-06T02:42:14.176Z,1.70
2017-11-06T02:44:41.771Z,1.80
2017-11-06T02:47:09.495Z,1.90
2017-11-06T02:49:37.854Z,2.00
2017-11-06T02:52:05.440Z,2.00
2017-11-06T02:54:33.002Z,2.20
2017-11-06T02:57:00.587Z,2.50
2017-11-06T02:59:28.931Z,2.60
2017-11-06T03:01:56.525Z,2.60
2017-11-06T03:04:24.868Z,2.80
2017-11-06T03:06:52.431Z,2.80
2017-11-06T03:09:20.030Z,2.80
2017-11-06T03:11:47.626Z,2.90
2017-11-06T03:14:15.232Z,2.90
2017-11-06T03:16:44.113Z,3.00
2017-11-06T03:19:11.673Z,3.00
2017-11-06T03:21:39.243Z,3.20
2017-11-06T03:32:49.561Z,3.50
2017-11-06T03:35:17.146Z,3.50
2017-11-06T03:37:45.467Z,3.70
2017-11-06T03:40:13.040Z,3.70
2017-11-06T03:42:40.631Z,3.70
2017-11-06T03:45:08.246Z,3.80
2017-11-06T03:47:35.818Z,3.90
2017-11-06T03:50:03.393Z,3.90
2017-11-06T03:52:30.967Z,4.00
2017-11-06T03:54:58.549Z,4.00
2017-11-06T03:57:26.131Z,4.10
2017-11-06T03:59:54.475Z,4.20
2017-11-06T04:02:22.139Z,4.20
2017-11-06T04:04:49.700Z,4.20
2017-11-06T04:07:17.349Z,4.30
2017-11-06T04:09:44.925Z,4.30
2017-11-06T04:12:12.494Z,4.30
2017-11-06T04:14:40.059Z,4.40
2017-11-06T04:17:07.886Z,4.30
2017-11-06T04:19:35.649Z,4.30
2017-11-06T04:22:03.231Z,4.30
2017-11-06T04:24:31.639Z,4.20
2017-11-06T04:26:59.966Z,4.20
2017-11-06T04:29:27.544Z,4.20
2017-11-06T04:31:55.119Z,4.20
2017-11-06T04:34:22.680Z,4.30
2017-11-06T04:36:50.255Z,4.30
2017-11-06T04:39:17.831Z,4.40
2017-11-06T04:41:45.405Z,4.40
2017-11-06T04:44:13.730Z,4.40
2017-11-06T04:46:41.310Z,4.40
2017-11-06T04:49:08.876Z,4.40
2017-11-06T04:51:36.444Z,4.30
2017-11-06T04:54:04.035Z,4.30
2017-11-06T04:56:32.379Z,4.20
2017-11-06T04:58:59.995Z,4.20
2017-11-06T05:01:27.574Z,4.30
2017-11-06T05:03:55.175Z,4.20
2017-11-06T05:06:22.791Z,4.20
2017-11-06T05:08:50.378Z,4.20
2017-11-06T05:11:18.064Z,4.20
2017-11-06T05:13:46.396Z,4.30
2017-11-06T05:16:13.983Z,4.20
2017-11-06T05:18:41.557Z,4.40
2017-11-06T05:21:09.179Z,4.50
2017-11-06T05:23:36.778Z,4.50
2017-11-06T05:26:04.363Z,4.60
2017-11-06T05:28:31.944Z,4.70
2017-11-06T05:31:00.396Z,4.70
2017-11-06T05:33:27.988Z,4.60
2017-11-06T05:56:17.830Z,4.90
2017-11-06T05:58:45.441Z,4.90
2017-11-06T06:01:13.010Z,4.90
2017-11-06T06:03:40.787Z,4.90
2017-11-06T06:06:08.378Z,4.90
2017-11-06T06:08:36.701Z,4.90
2017-11-06T06:11:04.276Z,4.90
2017-11-06T06:13:31.847Z,4.90
2017-11-06T06:15:59.450Z,4.90
2017-11-06T06:18:27.791Z,5.00
2017-11-06T06:20:55.447Z,4.90
2017-11-06T06:23:23.007Z,5.00
2017-11-06T06:25:50.586Z,5.00
2017-11-06T07:04:19.704Z,4.90
2017-11-06T07:06:47.265Z,4.90
2017-11-06T07:15:18.883Z,5.10
2017-11-06T07:17:46.456Z,5.20
2017-11-06T07:23:35.160Z,5.30
2017-11-06T07:26:02.743Z,5.40
2017-11-06T07:28:31.095Z,5.40
2017-11-06T07:30:58.701Z,5.40
2017-11-06T07:33:26.264Z,5.50
2017-11-06T07:35:53.840Z,5.50
2017-11-06T07:38:21.414Z,5.60
2017-11-06T07:40:48.974Z,5.70
2017-11-06T07:43:16.564Z,5.70
2017-11-06T07:45:44.142Z,5.70
2017-11-06T07:48:11.727Z,5.70
2017-11-06T07:50:40.128Z,5.70
2017-11-06T07:53:07.678Z,5.70
2017-11-06T07:55:35.251Z,5.70
2017-11-06T08:12:32.133Z,6.20
2017-11-06T08:14:59.730Z,6.20
2017-11-06T08:17:27.365Z,6.30
2017-11-06T08:19:54.934Z,6.50
2017-11-06T08:22:22.537Z,6.50
2017-11-06T08:24:50.369Z,6.50
2017-11-06T08:27:17.952Z,6.50
2017-11-06T08:29:46.351Z,6.40
2017-11-06T08:32:13.983Z,6.40
2017-11-06T08:34:42.376Z,6.50
2017-11-06T08:37:09.951Z,6.50
2017-11-06T08:39:38.289Z,6.80
2017-11-06T08:42:05.883Z,6.70
2017-11-06T08:44:34.274Z,6.80
2017-11-06T08:47:01.872Z,6.80
2017-11-06T08:49:29.459Z,6.80
2017-11-06T08:51:57.097Z,6.90
2017-11-06T08:54:24.679Z,7.00
2017-11-06T08:56:52.275Z,7.00
2017-11-06T08:59:20.643Z,6.70
2017-11-06T09:01:48.234Z,6.60
2017-11-06T09:04:15.824Z,6.80
2017-11-06T09:06:43.411Z,7.00
2017-11-06T09:09:11.003Z,7.20
2017-11-06T09:11:39.377Z,7.50
2017-11-06T09:14:07.000Z,7.50
2017-11-06T09:16:34.669Z,7.50
2017-11-06T09:19:02.366Z,7.20
2017-11-06T09:21:30.082Z,7.20
2017-11-06T09:23:57.784Z,7.40
2017-11-06T09:26:25.444Z,7.80
2017-11-06T09:28:53.067Z,8.30
2017-11-06T09:31:20.680Z,8.40
2017-11-06T09:33:48.337Z,8.20
2017-11-06T09:36:15.878Z,8.00
2017-11-06T09:38:43.505Z,8.20
2017-11-06T09:41:11.093Z,8.20
2017-11-06T09:43:38.676Z,8.60
2017-11-06T09:46:06.288Z,9.00
2017-11-06T09:48:34.662Z,9.40
2017-11-06T09:51:02.999Z,9.50
2017-11-06T09:53:30.757Z,9.50
2017-11-06T09:55:58.335Z,8.90
2017-11-06T09:58:26.057Z,8.70
2017-11-06T10:00:53.677Z,8.70
2017-11-06T10:03:21.401Z,9.10
2017-11-06T10:05:48.972Z,9.30
2017-11-06T10:08:17.339Z,9.30
2017-11-06T10:10:45.003Z,9.10
2017-11-06T10:13:12.588Z,8.80
2017-11-06T10:15:40.170Z,8.70
2017-11-06T10:18:07.847Z,8.50
2017-11-06T10:20:36.242Z,9.00
2017-11-06T10:23:04.608Z,9.40
2017-11-06T10:25:32.139Z,9.40
2017-11-06T10:28:00.624Z,10.00
2017-11-06T10:30:28.233Z,9.80
2017-11-06T10:32:56.567Z,11.30
2017-11-06T10:35:24.159Z,11.30
2017-11-06T10:37:57.315Z,13.90
2017-11-06T10:40:24.897Z,13.80
2017-11-06T10:42:52.497Z,14.50
2017-11-06T10:45:21.054Z,13.30
2017-11-06T10:47:48.644Z,13.30
2017-11-06T10:50:17.944Z,11.10
2017-11-06T10:52:45.656Z,11.00
2017-11-06T10:55:13.412Z,10.70
2017-11-06T10:57:41.021Z,10.80
2017-11-06T11:00:08.621Z,10.50
2017-11-06T11:02:36.206Z,10.40
2017-11-06T11:05:03.876Z,11.00
2017-11-06T11:07:31.451Z,11.50
2017-11-06T11:09:59.091Z,12.30
2017-11-06T11:12:26.695Z,11.90
2017-11-06T11:14:55.040Z,11.70
2017-11-06T11:17:22.643Z,11.70
2017-11-06T11:19:50.203Z,12.00
2017-11-06T11:22:17.821Z,11.50
2017-11-06T11:24:45.404Z,11.90
2017-11-06T11:27:13.263Z,11.70
2017-11-06T11:29:40.856Z,11.80
2017-11-06T11:32:08.462Z,11.80
2017-11-06T11:34:36.082Z,11.40
2017-11-06T11:37:03.651Z,11.30
2017-11-06T11:39:32.214Z,11.40
2017-11-06T11:41:59.810Z,11.40
2017-11-06T11:44:28.209Z,11.30
2017-11-06T11:46:55.793Z,11.20
2017-11-06T11:49:23.490Z,11.40
2017-11-06T11:51:51.078Z,11.50
2017-11-06T11:54:18.778Z,11.20
2017-11-06T11:56:46.362Z,11.00
2017-11-06T11:59:13.952Z,11.00
2017-11-06T12:01:42.288Z,11.40
2017-11-06T12:04:09.885Z,11.40
2017-11-06T12:06:38.251Z,11.00
2017-11-06T12:09:05.851Z,11.00
2017-11-06T12:11:33.435Z,10.90
2017-11-06T12:14:01.024Z,10.90
2017-11-06T12:16:28.612Z,11.00
2017-11-06T12:18:56.193Z,11.30
2017-11-06T12:21:24.550Z,11.00
2017-11-06T12:23:52.386Z,11.00
2017-11-06T12:26:20.002Z,11.70
2017-11-06T12:28:48.349Z,11.40
2017-11-06T12:31:16.708Z,11.70
2017-11-06T12:33:44.292Z,11.60
2017-11-06T12:36:12.662Z,12.20
2017-11-06T12:38:40.254Z,12.20
2017-11-06T12:41:08.631Z,11.90
2017-11-06T12:43:36.214Z,11.80
2017-11-06T12:46:03.777Z,11.80
2017-11-06T12:48:31.370Z,11.70
2017-11-06T12:50:58.947Z,11.60
2017-11-06T12:53:26.545Z,11.50
2017-11-06T12:55:54.900Z,11.30
2017-11-06T12:58:22.511Z,11.30
2017-11-06T13:00:50.150Z,11.20
2017-11-06T13:03:18.555Z,11.10
2017-11-06T13:05:46.155Z,11.10
2017-11-06T13:08:14.512Z,11.10
2017-11-06T13:10:42.179Z,11.10
2017-11-06T13:13:09.779Z,11.20
2017-11-06T13:15:37.423Z,11.00
2017-11-06T13:18:05.051Z,11.20
2017-11-06T13:20:32.642Z,11.20
2017-11-06T13:23:00.271Z,11.10
2017-11-06T13:25:27.909Z,10.90
2017-11-06T13:27:55.503Z,10.90
2017-11-06T13:30:23.135Z,10.80
2017-11-06T13:32:50.747Z,10.60
2017-11-06T13:35:18.319Z,10.40
2017-11-06T13:37:46.861Z,10.20
2017-11-06T13:40:14.479Z,10.20
2017-11-06T13:42:42.844Z,9.90
2017-11-06T13:45:10.441Z,9.90
2017-11-06T13:47:38.910Z,9.70
2017-11-06T13:50:07.276Z,9.60
2017-11-06T13:52:34.933Z,9.50
2017-11-06T13:55:02.557Z,9.60
2017-11-06T13:57:30.175Z,9.60
2017-11-06T13:59:58.529Z,9.50
2017-11-06T14:02:26.144Z,9.50
2017-11-06T14:04:53.711Z,9.60
2017-11-06T14:07:21.646Z,9.50
2017-11-06T14:09:50.062Z,9.10
2017-11-06T14:12:17.673Z,9.00
2017-11-06T14:14:45.915Z,8.90
2017-11-06T14:17:13.502Z,8.80
2017-11-06T14:19:41.135Z,8.80
2017-11-06T14:22:08.740Z,8.80
2017-11-06T14:24:36.342Z,8.80
2017-11-06T14:27:03.920Z,8.80
2017-11-06T14:29:31.558Z,8.70
2017-11-06T14:31:59.160Z,8.60
2017-11-06T14:34:27.279Z,8.50
2017-11-06T14:36:55.716Z,8.50
2017-11-06T14:39:23.307Z,8.50
2017-11-06T14:41:50.951Z,8.40
2017-11-06T14:44:18.559Z,8.40
2017-11-06T14:46:46.149Z,8.20
2017-11-06T14:49:14.093Z,8.20
2017-11-06T14:51:41.673Z,8.10
2017-11-06T14:54:09.354Z,8.10
2017-11-06T14:56:36.949Z,8.20
2017-11-06T14:59:04.536Z,8.20
2017-11-06T15:01:32.267Z,8.10
2017-11-06T15:04:00.604Z,7.90
2017-11-06T15:06:28.209Z,7.90
2017-11-06T15:08:55.798Z,7.80
2017-11-06T15:11:23.402Z,7.60
2017-11-06T15:13:51.078Z,7.40
2017-11-06T15:16:18.649Z,7.30
2017-11-06T15:18:46.236Z,7.50
2017-11-06T15:21:14.620Z,7.30
2017-11-06T15:23:43.541Z,7.10
2017-11-06T15:26:11.321Z,7.10
2017-11-06T15:28:39.777Z,7.00
2017-11-06T15:31:07.394Z,7.00
2017-11-06T15:33:35.003Z,6.90
2017-11-06T15:36:03.496Z,6.50
2017-11-06T15:38:31.131Z,6.50
2017-11-06T15:40:59.485Z,6.10
2017-11-06T15:43:27.062Z,6.00
2017-11-06T15:45:54.674Z,5.90
2017-11-06T15:48:22.379Z,5.70
2017-11-06T15:50:49.966Z,5.60
2017-11-06T15:53:18.328Z,5.50
2017-11-06T15:55:45.927Z,5.40
2017-11-06T15:58:13.503Z,5.40
2017-11-06T16:00:41.147Z,5.40
2017-11-06T16:03:09.502Z,5.30
2017-11-06T16:05:37.073Z,5.30
2017-11-06T16:08:05.533Z,5.10
2017-11-06T16:10:33.121Z,5.10
2017-11-06T16:13:01.464Z,5.00
2017-11-06T16:15:29.096Z,5.00
2017-11-06T16:17:56.687Z,5.10
2017-11-06T16:20:24.263Z,5.20
2017-11-06T16:22:51.866Z,5.20
2017-11-06T16:25:19.548Z,5.00
2017-11-06T16:27:47.201Z,4.80
2017-11-06T16:30:15.013Z,4.80
2017-11-06T16:32:42.628Z,4.90
2017-11-06T16:35:10.267Z,4.70
2017-11-06T16:37:38.609Z,4.50
2017-11-06T16:40:06.210Z,4.50
2017-11-06T16:42:34.538Z,4.30
2017-11-06T16:45:02.156Z,4.30
2017-11-06T16:47:29.765Z,4.20
2017-11-06T16:49:57.373Z,4.20
2017-11-06T16:52:25.746Z,4.10
2017-11-06T16:54:53.362Z,4.00
2017-11-06T16:57:21.896Z,4.00
2017-11-06T16:59:49.484Z,4.00
2017-11-06T17:02:17.081Z,4.00
2017-11-06T17:04:45.424Z,3.80
2017-11-06T17:07:13.786Z,3.90
2017-11-06T17:09:41.380Z,3.90
2017-11-06T17:12:09.012Z,4.00
2017-11-06T17:14:36.645Z,3.90
2017-11-06T17:17:04.225Z,3.90
2017-11-06T17:19:31.803Z,3.90
2017-11-06T17:21:59.392Z,3.90
2017-11-06T17:24:27.129Z,3.90
2017-11-06T17:26:54.720Z,3.80
2017-11-06T17:29:22.311Z,3.80
2017-11-06T17:31:49.918Z,3.70
2017-11-06T17:34:17.539Z,3.60
2017-11-06T17:36:45.181Z,3.50
2017-11-06T17:39:13.761Z,3.70
2017-11-06T17:41:41.468Z,3.80
2017-11-06T17:44:09.075Z,3.70
2017-11-06T17:46:36.843Z,3.60
2017-11-06T17:49:04.419Z,3.50
2017-11-06T17:51:32.798Z,3.40
2017-11-06T17:54:00.400Z,3.40
2017-11-06T17:56:27.999Z,3.40
2017-11-06T17:58:55.586Z,3.60
2017-11-06T18:01:23.978Z,4.20
2017-11-06T18:03:52.335Z,4.40
2017-11-06T18:06:19.950Z,4.30
2017-11-06T18:08:47.518Z,4.20
2017-11-06T18:11:15.136Z,4.00
2017-11-06T18:13:43.608Z,3.90
2017-11-06T18:16:11.170Z,3.90
2017-11-06T18:18:38.769Z,3.90
2017-11-06T18:21:06.368Z,3.80
2017-11-06T18:23:33.966Z,3.60
2017-11-06T18:26:02.379Z,3.70
2017-11-06T18:28:30.140Z,3.60
2017-11-06T18:30:57.768Z,3.60
2017-11-06T18:33:25.381Z,3.60
2017-11-06T18:35:53.557Z,3.60
2017-11-06T18:38:21.153Z,3.40
2017-11-06T18:40:48.767Z,3.20
2017-11-06T18:43:17.122Z,3.30
2017-11-06T18:45:45.465Z,3.40
2017-11-06T18:48:13.107Z,3.30
2017-11-06T18:50:40.687Z,3.40
2017-11-06T18:53:08.384Z,3.30
2017-11-06T18:55:35.960Z,3.10
2017-11-06T18:58:04.435Z,3.00
2017-11-06T19:00:32.804Z,3.00
2017-11-06T19:03:00.373Z,3.00
2017-11-06T19:05:28.054Z,2.90
2017-11-06T19:07:56.378Z,2.70
2017-11-06T19:10:24.211Z,2.70
2017-11-06T19:12:52.727Z,2.70
2017-11-06T19:15:20.359Z,2.70
2017-11-06T19:17:47.964Z,2.60
2017-11-06T19:20:26.010Z,2.50
2017-11-06T19:22:54.365Z,2.40
2017-11-06T19:25:22.030Z,2.40
2017-11-06T19:27:49.985Z,2.40
2017-11-06T19:30:18.518Z,2.30
2017-11-06T19:32:47.181Z,2.40
2017-11-06T19:35:15.211Z,2.40
2017-11-06T19:37:42.836Z,2.40
2017-11-06T19:40:11.381Z,2.40
2017-11-06T19:42:38.983Z,2.40
2017-11-06T19:45:07.388Z,2.40
2017-11-06T19:47:34.974Z,2.40
2017-11-06T19:50:02.672Z,2.50
2017-11-06T19:52:30.348Z,2.50
2017-11-06T19:54:58.027Z,2.60
2017-11-06T19:57:25.653Z,2.60
2017-11-06T19:59:53.347Z,2.70
2017-11-06T20:02:21.712Z,2.70
2017-11-06T20:04:49.344Z,2.70
2017-11-06T20:07:17.822Z,2.70
2017-11-06T20:09:46.412Z,2.70
2017-11-06T20:12:14.300Z,2.60
2017-11-06T20:14:42.842Z,2.50
2017-11-06T20:17:11.393Z,2.50
2017-11-06T20:19:39.135Z,2.60
2017-11-06T20:22:06.775Z,2.50
2017-11-06T20:24:35.356Z,2.50
2017-11-06T20:27:03.491Z,2.80
2017-11-06T20:29:31.213Z,3.10
2017-11-06T20:31:59.313Z,3.30
2017-11-06T20:34:27.919Z,3.70
2017-11-06T20:36:56.019Z,3.70
2017-11-06T20:39:24.062Z,3.80
2017-11-06T20:41:51.897Z,3.80
2017-11-06T20:44:20.288Z,3.90
2017-11-06T20:46:48.703Z,4.00
2017-11-06T20:49:16.283Z,3.90
2017-11-06T20:51:45.654Z,4.00
2017-11-06T20:54:14.231Z,4.10
2017-11-06T20:56:42.385Z,4.10
2017-11-06T20:59:10.226Z,4.20
2017-11-06T21:01:38.298Z,4.30
2017-11-06T21:04:06.115Z,4.30
2017-11-06T21:06:34.599Z,4.40
2017-11-06T21:09:03.972Z,4.50
2017-11-06T21:11:31.598Z,4.40
2017-11-06T21:13:59.322Z,4.50
2017-11-06T21:16:27.769Z,4.50
2017-11-06T21:18:56.292Z,4.50
2017-11-06T21:21:24.847Z,4.70
2017-11-06T21:23:52.563Z,4.70
2017-11-06T21:26:20.276Z,4.70
2017-11-06T21:28:47.990Z,4.70
2017-11-06T21:31:15.659Z,4.80
2017-11-06T21:33:43.502Z,4.80
2017-11-06T21:36:11.898Z,4.70
2017-11-06T21:38:39.499Z,4.70
2017-11-06T21:41:07.183Z,4.80
2017-11-06T21:43:34.833Z,4.80
2017-11-06T21:46:02.970Z,4.80
2017-11-06T21:48:30.509Z,4.90
2017-11-06T21:50:58.921Z,4.90
2017-11-06T21:53:26.500Z,4.90
2017-11-06T21:55:54.240Z,4.90
2017-11-06T21:58:21.832Z,5.00
2017-11-06T22:00:49.426Z,5.00
2017-11-06T22:03:17.009Z,5.00
2017-11-06T22:05:45.376Z,5.10
2017-11-06T22:08:12.939Z,5.10
2017-11-06T22:10:40.512Z,5.20
2017-11-06T22:13:08.964Z,5.10
2017-11-06T22:15:36.552Z,5.10
2017-11-06T22:18:04.903Z,5.20
2017-11-06T22:20:32.476Z,5.20
2017-11-06T22:23:00.245Z,5.30
2017-11-06T22:25:28.657Z,5.20
2017-11-06T22:27:57.011Z,5.20
2017-11-06T22:30:24.727Z,5.20
2017-11-06T22:32:52.295Z,5.20
2017-11-06T22:35:19.882Z,5.30
2017-11-06T22:37:47.491Z,5.20
2017-11-06T22:40:15.082Z,5.20
2017-11-06T22:42:42.670Z,5.30
2017-11-06T22:45:10.299Z,5.30
2017-11-06T22:47:37.900Z,5.30
2017-11-06T22:50:05.615Z,5.30
2017-11-06T22:52:33.199Z,5.30
2017-11-06T22:55:00.827Z,5.20
2017-11-06T22:57:29.439Z,5.10
2017-11-06T22:59:57.043Z,5.10
2017-11-06T23:02:24.698Z,5.10
2017-11-06T23:04:52.287Z,5.10
2017-11-06T23:07:19.890Z,5.10
2017-11-06T23:09:47.580Z,5.10
2017-11-06T23:12:15.151Z,5.10
2017-11-06T23:14:42.749Z,5.10
2017-11-06T23:17:11.090Z,5.10
2017-11-06T23:19:38.658Z,5.10
2017-11-06T23:22:06.234Z,5.20
2017-11-06T23:24:33.854Z,5.10
2017-11-06T23:27:01.424Z,5.10
2017-11-06T23:29:29.004Z,5.20
2017-11-06T23:31:57.342Z,5.20
2017-11-06T23:34:25.704Z,5.20
2017-11-06T23:36:53.531Z,5.20
2017-11-06T23:39:21.873Z,5.20
2017-11-06T23:41:49.457Z,5.20
2017-11-06T23:44:17.202Z,5.10
2017-11-06T23:46:44.770Z,5.10
2017-11-06T23:49:12.335Z,5.00
2017-11-06T23:51:39.936Z,4.80
2017-11-06T23:54:18.229Z,4.60
2017-11-06T23:56:46.570Z,4.50
2017-11-06T23:59:14.180Z,4.50
